CYPA

Prince Albert Glass Field Airport

Prince Albert, Saskatchewan, Canada
METAR CYPA 201400Z VRB02KT 15SM FEW090 BKN280 19/14 A3004 RMK ACC1CI5 CB TOP DIST NW SLP176 DENSITY ALT 2100FT
Observed Flight Rules
Jul-20 @ 14:00 UTC (41 minutes ago) Visual Flight Rules
Wind Visibility Clouds
Variable at 2 knots 15 miles
  • Few at 9,000' AGL
  • Broken at 28,000' AGL
Temperatures Readings
Current 19°C / 66°F
Dewpoint 14°C / 57°F
Humidity 73%
Altimeter 30.04" Hg
Pressure 1017.6 hPa
Elevation 428
METAR CYPA 201400Z VRB02KT 15SM FEW090 BKN280 19/14 A3004 RMK ACC1CI5 CB TOP DIST NW SLP176 DENSITY ALT 2100FT
Observed Flight Rules
Jul-20 @ 14:00 UTC
(41 minutes ago)
VFR
Wind Visibility
Variable at 2 knots 15 miles
Clouds
  • Few at 9,000' AGL
  • Broken at 28,000' AGL
Temperature Dewpoint
19°C / 66°F 14°C / 57°F
Humidity Altimeter Pressure
73% 30.04" Hg 1017.6 hPa